Time;durP1;ratioP1;P1;durP2;ratioP2;P2;SDS_P1;SDS_P2;PMS_P1;PMS_P2;Temp;Humidity;BMP_temperature;BMP_pressure;BME280_temperature;BME280_humidity;BME280_pressure;Samples;Min_cycle;Max_cycle;Signal;HPM_P1;HPM_P2
2022/07/19 00:00:48;;;;;;;3.95;1.40;;;30.20;83.80;;;;;;4869726;29;20045;-77
2022/07/19 00:03:17;;;;;;;3.28;1.30;;;30.20;83.50;;;;;;4853498;29;20064;-77
2022/07/19 00:05:45;;;;;;;4.07;1.33;;;30.30;83.50;;;;;;4870890;29;20040;-75
2022/07/19 00:08:13;;;;;;;2.25;1.50;;;30.40;83.80;;;;;;4869755;29;20076;-77
2022/07/19 00:10:41;;;;;;;3.05;1.58;;;30.40;84.20;;;;;;4870835;29;20045;-75
2022/07/19 00:13:09;;;;;;;4.00;1.70;;;30.20;84.30;;;;;;4883955;29;20055;-77
2022/07/19 00:15:37;;;;;;;3.33;1.63;;;30.20;84.60;;;;;;4871065;29;20116;-77
2022/07/19 00:18:06;;;;;;;3.45;1.88;;;30.20;84.60;;;;;;4868954;29;20511;-77
2022/07/19 00:20:35;;;;;;;2.53;1.33;;;30.30;84.60;;;;;;4884670;29;20053;-76
2022/07/19 00:23:03;;;;;;;1.75;1.42;;;30.30;84.30;;;;;;4868803;29;20044;-76
2022/07/19 00:25:31;;;;;;;3.28;1.58;;;30.40;84.60;;;;;;4869596;29;20499;-76
2022/07/19 00:27:59;;;;;;;3.33;1.50;;;30.30;84.70;;;;;;4868890;29;20105;-76
2022/07/19 00:30:26;;;;;;;2.38;1.65;;;30.10;84.90;;;;;;4854578;29;20049;-77
2022/07/19 00:32:54;;;;;;;2.50;1.67;;;30.00;84.90;;;;;;4870805;29;20120;-76
2022/07/19 00:35:22;;;;;;;1.95;1.60;;;30.00;85.00;;;;;;4871139;29;20144;-77
2022/07/19 00:37:52;;;;;;;3.22;1.85;;;30.10;84.80;;;;;;4868196;29;20052;-76
2022/07/19 00:40:22;;;;;;;3.15;1.70;;;30.10;85.00;;;;;;4869180;29;20063;-77
2022/07/19 00:42:51;;;;;;;5.35;1.80;;;30.20;85.00;;;;;;4868524;29;20056;-76
2022/07/19 00:45:18;;;;;;;2.63;1.40;;;30.20;85.10;;;;;;4867222;29;20045;-77
2022/07/19 00:47:46;;;;;;;2.65;1.70;;;30.20;85.60;;;;;;4883787;29;20076;-76
2022/07/19 00:50:14;;;;;;;2.92;2.00;;;30.20;86.20;;;;;;4871990;29;20408;-76
2022/07/19 00:52:44;;;;;;;3.47;1.52;;;30.10;86.30;;;;;;4869407;29;20057;-76
2022/07/19 00:55:15;;;;;;;4.10;1.73;;;30.00;86.70;;;;;;4869776;29;20140;-76
2022/07/19 00:57:43;;;;;;;3.25;1.77;;;29.80;87.40;;;;;;4887288;29;20053;-76
2022/07/19 01:00:11;;;;;;;2.22;1.60;;;29.90;87.40;;;;;;4874094;29;20052;-76
2022/07/19 01:02:40;;;;;;;2.35;1.27;;;29.90;87.30;;;;;;4871802;29;20060;-77
2022/07/19 01:05:09;;;;;;;3.97;1.60;;;29.80;87.50;;;;;;4876593;29;20052;-76
2022/07/19 01:07:39;;;;;;;3.35;1.88;;;29.60;87.90;;;;;;4886508;29;20045;-76
2022/07/19 01:10:14;;;;;;;2.92;1.83;;;29.70;88.50;;;;;;4874260;29;20127;-76
2022/07/19 01:12:42;;;;;;;2.08;1.55;;;29.70;88.50;;;;;;4871180;29;20073;-76
2022/07/19 01:15:15;;;;;;;2.90;1.92;;;29.60;89.00;;;;;;4867532;29;20041;-77
2022/07/19 01:17:43;;;;;;;3.45;2.22;;;29.40;90.20;;;;;;4853815;29;20512;-76
2022/07/19 01:20:11;;;;;;;4.03;1.50;;;29.50;90.50;;;;;;4872000;29;20514;-76
2022/07/19 01:22:41;;;;;;;3.50;1.90;;;29.60;91.00;;;;;;4873189;29;20041;-76
2022/07/19 01:25:11;;;;;;;2.70;1.83;;;29.50;91.10;;;;;;4872647;29;20061;-76
2022/07/19 01:27:40;;;;;;;1.80;1.63;;;29.50;90.70;;;;;;4856629;29;20056;-77
2022/07/19 01:30:13;;;;;;;2.67;1.60;;;29.50;90.00;;;;;;4871913;29;20445;-77
2022/07/19 01:32:41;;;;;;;4.88;1.95;;;29.50;89.50;;;;;;4870334;29;20081;-77
2022/07/19 01:35:10;;;;;;;1.77;1.67;;;29.50;89.70;;;;;;4873033;29;20060;-77
2022/07/19 01:37:38;;;;;;;5.88;1.80;;;29.40;89.90;;;;;;4872365;29;20057;-76
2022/07/19 01:40:10;;;;;;;3.60;1.90;;;29.40;90.00;;;;;;4873635;29;20151;-77
2022/07/19 01:42:40;;;;;;;3.05;1.98;;;29.40;89.90;;;;;;4874008;29;20119;-77
2022/07/19 01:45:09;;;;;;;2.65;1.90;;;29.40;89.90;;;;;;4858662;29;20049;-76
2022/07/19 01:47:40;;;;;;;4.28;1.63;;;29.30;90.30;;;;;;4872910;29;20057;-77
2022/07/19 01:50:10;;;;;;;2.08;1.80;;;29.20;90.40;;;;;;4855427;29;20065;-76
2022/07/19 01:52:44;;;;;;;3.58;1.70;;;29.20;90.80;;;;;;4870772;29;20061;-76
2022/07/19 01:55:19;;;;;;;2.67;1.73;;;29.10;90.90;;;;;;4873642;29;20936;-76
2022/07/19 01:57:48;;;;;;;3.97;2.00;;;29.10;91.20;;;;;;4871875;29;20052;-77
2022/07/19 02:00:17;;;;;;;3.67;1.88;;;29.10;91.60;;;;;;4870089;29;20133;-77
2022/07/19 02:02:45;;;;;;;2.30;1.77;;;29.00;92.30;;;;;;4886041;29;20049;-76
2022/07/19 02:05:13;;;;;;;3.22;1.83;;;29.00;92.60;;;;;;4873058;29;20080;-77
2022/07/19 02:07:46;;;;;;;2.72;1.90;;;29.00;92.90;;;;;;4872463;29;20049;-76
2022/07/19 02:10:15;;;;;;;2.95;1.90;;;28.90;92.60;;;;;;4873135;29;20049;-77
2022/07/19 02:12:45;;;;;;;3.90;1.80;;;28.80;92.80;;;;;;4871577;29;20055;-76
2022/07/19 02:15:14;;;;;;;3.60;1.70;;;28.70;93.00;;;;;;4871141;29;20522;-76
2022/07/19 02:17:42;;;;;;;3.42;2.20;;;28.50;93.30;;;;;;4857379;29;20049;-76
2022/07/19 02:20:12;;;;;;;3.30;1.55;;;28.40;93.40;;;;;;4883419;29;20053;-76
2022/07/19 02:22:41;;;;;;;2.42;1.90;;;28.40;93.50;;;;;;4855516;29;20045;-76
2022/07/19 02:25:10;;;;;;;2.75;1.60;;;28.40;93.60;;;;;;4872608;29;20095;-76
2022/07/19 02:27:38;;;;;;;2.13;1.70;;;28.30;93.70;;;;;;4870787;29;20040;-76
2022/07/19 02:30:11;;;;;;;2.67;1.88;;;28.30;93.80;;;;;;4870850;29;20129;-77
2022/07/19 02:32:39;;;;;;;3.05;1.70;;;28.30;93.70;;;;;;4885945;29;20057;-77
2022/07/19 02:35:10;;;;;;;3.58;1.88;;;28.40;93.60;;;;;;4865416;29;20045;-78
2022/07/19 02:37:40;;;;;;;3.50;1.50;;;28.30;93.60;;;;;;4869008;29;20053;-76
2022/07/19 02:40:09;;;;;;;2.55;1.58;;;28.40;93.40;;;;;;4870703;29;20045;-77
2022/07/19 02:42:38;;;;;;;2.60;1.90;;;28.40;94.80;;;;;;4870655;29;20053;-77
2022/07/19 02:45:08;;;;;;;3.53;2.05;;;28.30;94.70;;;;;;4873015;29;20073;-76
2022/07/19 02:47:38;;;;;;;3.05;1.85;;;28.30;94.90;;;;;;4886165;29;20052;-76
2022/07/19 02:50:07;;;;;;;2.72;1.65;;;28.30;94.20;;;;;;4872912;29;20040;-77
2022/07/19 02:52:35;;;;;;;2.80;1.70;;;28.30;93.50;;;;;;4871251;29;20041;-76
2022/07/19 02:55:05;;;;;;;1.63;1.52;;;28.20;93.70;;;;;;4872258;29;20053;-76
2022/07/19 02:57:33;;;;;;;4.38;2.13;;;28.20;93.60;;;;;;4872899;29;20045;-76
2022/07/19 03:00:03;;;;;;;2.78;1.90;;;28.20;93.50;;;;;;4871658;29;20143;-76
2022/07/19 03:02:35;;;;;;;3.80;2.00;;;28.20;93.50;;;;;;4886472;29;20049;-77
2022/07/19 03:05:03;;;;;;;2.88;1.65;;;28.20;93.70;;;;;;4871413;29;20051;-77
2022/07/19 03:07:32;;;;;;;2.67;1.90;;;28.20;93.60;;;;;;4871370;29;20148;-76
2022/07/19 03:10:00;;;;;;;4.28;1.80;;;28.20;93.70;;;;;;4870163;29;20100;-77
2022/07/19 03:12:28;;;;;;;2.58;2.25;;;28.20;94.90;;;;;;4870360;29;20068;-77
2022/07/19 03:14:56;;;;;;;2.42;2.22;;;28.10;95.70;;;;;;4854305;29;20041;-77
2022/07/19 03:17:25;;;;;;;2.47;1.75;;;28.00;96.10;;;;;;4886655;29;20271;-76
2022/07/19 03:19:54;;;;;;;4.18;2.05;;;28.00;96.60;;;;;;4861565;29;20102;-77
2022/07/19 03:22:23;;;;;;;4.20;2.00;;;28.00;96.00;;;;;;4870813;29;20128;-76
2022/07/19 03:24:51;;;;;;;2.78;1.92;;;28.00;95.80;;;;;;4869262;29;20066;-77
2022/07/19 03:27:19;;;;;;;3.90;2.00;;;28.10;95.40;;;;;;4870554;29;20105;-77
2022/07/19 03:29:47;;;;;;;3.42;1.98;;;28.00;95.30;;;;;;4884786;29;20047;-77
2022/07/19 03:32:16;;;;;;;3.47;1.95;;;28.00;95.30;;;;;;4888924;29;20061;-77
2022/07/19 03:34:44;;;;;;;5.07;2.13;;;28.10;95.00;;;;;;4869140;29;20069;-77
2022/07/19 03:37:14;;;;;;;5.15;2.60;;;28.10;95.40;;;;;;4870372;29;20057;-76
2022/07/19 03:39:42;;;;;;;5.15;2.15;;;27.90;95.80;;;;;;4870579;29;20394;-76
2022/07/19 03:42:10;;;;;;;3.22;2.10;;;27.80;96.40;;;;;;4856919;29;20049;-76
2022/07/19 03:44:38;;;;;;;4.82;2.50;;;27.70;96.70;;;;;;4869795;29;20059;-76
2022/07/19 03:47:07;;;;;;;5.07;2.33;;;27.50;96.70;;;;;;4869221;29;20073;-77
2022/07/19 03:49:35;;;;;;;2.92;2.25;;;27.40;96.70;;;;;;4868876;29;20069;-77
2022/07/19 03:52:04;;;;;;;5.60;2.20;;;27.40;96.70;;;;;;4870841;29;20425;-77
2022/07/19 03:54:33;;;;;;;3.72;1.90;;;27.40;96.70;;;;;;4869228;29;20515;-77
2022/07/19 03:57:02;;;;;;;3.42;1.77;;;27.50;96.70;;;;;;4870683;29;20065;-77
2022/07/19 03:59:30;;;;;;;3.10;2.10;;;27.50;96.70;;;;;;4870021;29;20045;-77
2022/07/19 04:01:58;;;;;;;3.25;1.85;;;27.30;96.70;;;;;;4872431;29;20089;-77
2022/07/19 04:04:26;;;;;;;2.53;1.90;;;27.30;96.70;;;;;;4869389;29;20049;-78
2022/07/19 04:06:55;;;;;;;6.05;2.35;;;27.20;96.70;;;;;;4869255;29;20101;-76
2022/07/19 04:09:23;;;;;;;2.92;2.00;;;27.10;96.70;;;;;;4870350;29;20128;-76
2022/07/19 04:11:52;;;;;;;2.25;1.95;;;27.00;96.70;;;;;;4853632;29;20465;-76
2022/07/19 04:14:21;;;;;;;3.70;2.10;;;27.10;96.70;;;;;;4853398;29;20591;-76
2022/07/19 04:16:49;;;;;;;3.70;2.20;;;27.00;96.70;;;;;;4884896;29;20419;-76
2022/07/19 04:19:17;;;;;;;4.35;2.20;;;27.00;96.70;;;;;;4869803;29;20385;-76
2022/07/19 04:21:45;;;;;;;4.20;2.35;;;27.00;96.70;;;;;;4869390;29;20060;-76
2022/07/19 04:24:13;;;;;;;4.47;2.33;;;26.90;96.70;;;;;;4874005;29;20117;-76
2022/07/19 04:26:42;;;;;;;2.17;1.95;;;26.90;96.70;;;;;;4875347;29;20083;-76
2022/07/19 04:29:11;;;;;;;3.60;2.00;;;27.00;96.70;;;;;;4874417;29;20108;-78
2022/07/19 04:31:40;;;;;;;2.90;1.90;;;27.00;96.70;;;;;;4877564;29;20045;-76
2022/07/19 04:34:08;;;;;;;4.65;2.15;;;27.00;96.70;;;;;;4875013;29;20045;-76
2022/07/19 04:36:36;;;;;;;2.40;1.73;;;26.90;96.70;;;;;;4876045;29;20105;-76
2022/07/19 04:39:05;;;;;;;4.68;1.90;;;27.00;96.70;;;;;;4876236;29;20072;-76
2022/07/19 04:41:33;;;;;;;3.75;2.28;;;27.00;96.70;;;;;;4890008;29;20059;-76
2022/07/19 04:44:01;;;;;;;5.85;2.13;;;27.00;96.70;;;;;;4860276;29;20048;-76
2022/07/19 04:46:31;;;;;;;3.67;1.92;;;26.90;96.70;;;;;;4876489;29;20056;-76
2022/07/19 04:48:59;;;;;;;3.92;2.15;;;26.90;96.70;;;;;;4874994;29;20052;-76
2022/07/19 04:51:28;;;;;;;4.57;2.17;;;26.80;96.70;;;;;;4874555;29;20171;-76
2022/07/19 04:53:56;;;;;;;3.25;2.00;;;26.90;96.70;;;;;;4869408;29;20080;-76
2022/07/19 04:56:24;;;;;;;5.65;2.10;;;27.00;96.70;;;;;;4874221;29;20100;-76
2022/07/19 04:58:52;;;;;;;5.97;2.08;;;27.10;96.70;;;;;;4880041;29;20469;-76
2022/07/19 05:01:20;;;;;;;4.18;2.25;;;27.10;96.70;;;;;;4874570;29;20103;-76
2022/07/19 05:03:50;;;;;;;3.45;2.30;;;27.00;96.70;;;;;;4875976;29;20120;-76
2022/07/19 05:06:18;;;;;;;2.20;2.00;;;27.00;96.70;;;;;;4874303;29;20068;-76
2022/07/19 05:08:46;;;;;;;5.35;2.60;;;27.10;96.70;;;;;;4890875;29;20053;-76
2022/07/19 05:11:15;;;;;;;3.75;2.05;;;27.20;96.70;;;;;;4875957;29;20052;-77
2022/07/19 05:13:56;;;;;;;2.45;2.15;;;27.20;96.70;;;;;;4872348;29;20591;-76
2022/07/19 05:16:24;;;;;;;4.97;2.10;;;27.20;96.70;;;;;;4873477;29;20161;-75
2022/07/19 05:18:54;;;;;;;5.13;2.10;;;27.10;96.70;;;;;;4876636;29;20139;-76
2022/07/19 05:21:22;;;;;;;3.00;2.05;;;27.10;96.70;;;;;;4883424;29;20041;-76
2022/07/19 05:23:50;;;;;;;2.70;1.77;;;27.20;96.70;;;;;;4876452;29;20144;-76
2022/07/19 05:26:19;;;;;;;6.60;2.35;;;27.20;96.70;;;;;;4873068;29;20051;-77
2022/07/19 05:28:47;;;;;;;5.35;2.22;;;27.20;96.70;;;;;;4875405;29;20128;-77
2022/07/19 05:31:15;;;;;;;5.80;2.60;;;27.20;96.70;;;;;;4889444;29;20111;-77
2022/07/19 05:33:44;;;;;;;4.50;2.50;;;27.20;96.70;;;;;;4874136;29;20041;-77
2022/07/19 05:36:14;;;;;;;6.65;2.40;;;27.20;96.70;;;;;;4874110;29;20049;-76
2022/07/19 05:38:42;;;;;;;6.28;2.53;;;27.30;96.70;;;;;;4857719;29;20057;-77
2022/07/19 05:41:11;;;;;;;7.47;3.28;;;27.40;96.70;;;;;;4870795;29;20045;-76
2022/07/19 05:43:40;;;;;;;7.18;3.10;;;27.50;96.70;;;;;;4872522;29;20049;-77
2022/07/19 05:46:09;;;;;;;6.20;3.70;;;27.60;96.70;;;;;;4874037;29;20049;-77
2022/07/19 05:48:37;;;;;;;6.82;3.55;;;27.70;96.70;;;;;;4871358;29;20045;-77
2022/07/19 05:51:06;;;;;;;9.48;3.70;;;27.80;96.70;;;;;;4871139;29;20045;-77
2022/07/19 05:53:36;;;;;;;9.48;3.70;;;27.80;96.70;;;;;;4871582;29;20064;-78
2022/07/19 05:56:05;;;;;;;10.05;4.00;;;27.90;96.70;;;;;;4871446;29;20148;-78
2022/07/19 05:58:34;;;;;;;9.65;4.63;;;28.00;96.70;;;;;;4871170;29;20109;-79
2022/07/19 06:01:19;;;;;;;9.82;4.65;;;28.00;96.70;;;;;;4871732;29;20056;-79
2022/07/19 06:03:48;;;;;;;12.25;5.07;;;28.10;96.70;;;;;;4856096;29;20061;-77
2022/07/19 06:06:26;;;;;;;9.32;4.40;;;28.30;96.70;;;;;;4870793;29;20056;-78
2022/07/19 06:08:56;;;;;;;15.48;5.00;;;28.40;96.70;;;;;;4871249;29;20063;-79
2022/07/19 06:11:25;;;;;;;14.38;4.82;;;28.40;96.70;;;;;;4871604;29;20049;-78
2022/07/19 06:13:54;;;;;;;8.50;3.75;;;28.50;96.70;;;;;;4874488;29;20063;-77
2022/07/19 06:16:23;;;;;;;7.22;3.40;;;28.50;96.70;;;;;;4870889;29;20488;-78
2022/07/19 06:18:51;;;;;;;11.82;3.40;;;28.50;96.70;;;;;;4885826;29;20045;-78
2022/07/19 06:21:21;;;;;;;6.60;2.70;;;28.60;96.60;;;;;;4884245;29;20053;-78
2022/07/19 06:23:50;;;;;;;9.88;2.33;;;28.70;96.50;;;;;;4866945;29;20056;-80
2022/07/19 06:26:20;;;;;;;8.98;2.72;;;28.80;96.40;;;;;;4872005;29;20056;-79
2022/07/19 06:28:48;;;;;;;6.57;2.65;;;28.80;96.50;;;;;;4871279;29;20056;-80
2022/07/19 06:31:16;;;;;;;4.78;2.38;;;28.80;96.50;;;;;;4871441;29;20073;-80
2022/07/19 06:33:46;;;;;;;4.88;2.38;;;29.00;96.20;;;;;;4886696;29;20101;-80
2022/07/19 06:36:15;;;;;;;6.07;2.83;;;29.10;96.10;;;;;;4871338;29;20045;-78
2022/07/19 06:38:44;;;;;;;8.52;2.42;;;29.20;95.30;;;;;;4872011;29;20140;-79
2022/07/19 06:41:13;;;;;;;6.40;2.50;;;29.20;94.90;;;;;;4871031;29;20080;-77
2022/07/19 06:43:43;;;;;;;5.43;2.75;;;29.30;94.90;;;;;;4871407;29;20538;-77
2022/07/19 06:46:12;;;;;;;5.00;2.47;;;29.30;94.50;;;;;;4870436;29;20061;-77
2022/07/19 06:48:41;;;;;;;5.10;2.45;;;29.40;94.00;;;;;;4869030;29;20156;-78
2022/07/19 06:51:09;;;;;;;5.15;2.30;;;29.50;93.50;;;;;;4870691;29;20465;-78
2022/07/19 06:53:38;;;;;;;6.13;2.03;;;29.60;91.40;;;;;;4871590;29;20516;-77
2022/07/19 06:56:07;;;;;;;4.47;2.10;;;29.70;90.00;;;;;;4869960;29;20063;-77
2022/07/19 06:58:36;;;;;;;4.45;1.70;;;29.70;89.90;;;;;;4843866;29;20137;-78
2022/07/19 07:01:10;;;;;;;5.13;2.45;;;29.80;89.00;;;;;;4885131;29;20055;-77
2022/07/19 07:03:39;;;;;;;3.97;2.20;;;29.90;89.40;;;;;;4886166;29;20105;-78
2022/07/19 07:06:08;;;;;;;3.70;1.77;;;30.00;89.20;;;;;;4854375;29;20104;-78
2022/07/19 07:08:37;;;;;;;2.53;1.90;;;30.10;87.70;;;;;;4849679;29;20092;-78
2022/07/19 07:11:06;;;;;;;2.22;1.88;;;30.20;87.00;;;;;;4847646;29;20131;-78
2022/07/19 07:13:34;;;;;;;10.80;2.05;;;30.20;86.60;;;;;;4872929;29;20059;-78
2022/07/19 07:16:03;;;;;;;5.63;2.08;;;30.30;86.00;;;;;;4869661;29;20072;-76
2022/07/19 07:18:34;;;;;;;5.80;2.10;;;30.40;85.30;;;;;;4866875;29;20556;-77
2022/07/19 07:21:03;;;;;;;4.53;1.58;;;30.40;85.20;;;;;;4869362;29;20059;-78
2022/07/19 07:23:32;;;;;;;3.72;1.52;;;30.50;85.90;;;;;;4869150;29;20053;-77
2022/07/19 07:26:01;;;;;;;2.25;1.85;;;30.60;85.80;;;;;;4867973;29;20232;-76
2022/07/19 07:28:30;;;;;;;5.88;2.10;;;30.70;85.40;;;;;;4871224;29;20120;-76
2022/07/19 07:30:58;;;;;;;2.33;1.58;;;30.70;85.50;;;;;;4869636;29;20049;-77
2022/07/19 07:33:27;;;;;;;4.53;1.60;;;30.80;84.40;;;;;;4866886;29;20042;-77
2022/07/19 07:35:57;;;;;;;5.80;1.95;;;30.90;85.20;;;;;;4866764;29;20118;-76
2022/07/19 07:38:25;;;;;;;1.90;1.70;;;30.90;85.10;;;;;;4870657;29;20049;-77
2022/07/19 07:40:54;;;;;;;3.40;1.80;;;31.00;84.60;;;;;;4869237;29;20152;-77
2022/07/19 07:43:42;;;;;;;5.30;2.00;;;31.10;84.20;;;;;;4875461;29;20807;-77
2022/07/19 07:46:11;;;;;;;2.63;1.85;;;31.30;83.30;;;;;;4868801;29;20061;-77
2022/07/19 07:48:39;;;;;;;5.20;1.65;;;31.40;82.80;;;;;;4883496;29;20053;-77
2022/07/19 07:51:09;;;;;;;2.83;1.88;;;31.40;82.90;;;;;;4871024;29;20129;-78
2022/07/19 07:54:00;;;;;;;3.25;2.10;;;31.50;82.70;;;;;;4857800;29;20465;-79
2022/07/19 07:56:29;;;;;;;2.67;1.77;;;31.60;81.50;;;;;;4874495;29;20131;-77
2022/07/19 07:58:58;;;;;;;3.25;1.90;;;31.60;81.70;;;;;;4869919;29;20041;-77
2022/07/19 08:01:26;;;;;;;2.78;1.88;;;31.80;81.40;;;;;;4875197;29;20052;-77
2022/07/19 08:03:55;;;;;;;3.13;2.15;;;31.80;80.10;;;;;;4868789;29;20037;-77
2022/07/19 08:06:25;;;;;;;3.15;1.88;;;31.90;79.90;;;;;;4869066;29;20049;-77
2022/07/19 08:08:53;;;;;;;5.05;1.75;;;32.00;79.90;;;;;;4868821;29;20037;-77
2022/07/19 08:11:22;;;;;;;3.95;1.85;;;32.10;79.20;;;;;;4869482;29;21109;-77
2022/07/19 08:13:50;;;;;;;2.95;1.77;;;32.20;79.20;;;;;;4868944;29;20061;-78
2022/07/19 08:16:19;;;;;;;4.78;1.55;;;32.30;79.30;;;;;;4874195;29;20072;-78
2022/07/19 08:18:47;;;;;;;3.58;1.73;;;32.30;79.80;;;;;;4853451;29;20040;-76
2022/07/19 08:21:16;;;;;;;5.72;2.05;;;32.40;79.00;;;;;;4865003;29;20038;-78
2022/07/19 08:23:46;;;;;;;5.97;2.40;;;32.30;78.80;;;;;;4878971;29;20079;-76
2022/07/19 08:26:14;;;;;;;2.88;1.45;;;32.40;78.60;;;;;;4865031;29;20049;-77
2022/07/19 08:28:42;;;;;;;4.70;1.88;;;32.50;79.20;;;;;;4869760;29;20037;-77
2022/07/19 08:31:11;;;;;;;4.50;1.65;;;32.50;79.70;;;;;;4867469;29;20045;-77
2022/07/19 08:33:40;;;;;;;4.50;1.60;;;32.50;79.10;;;;;;4869606;29;20055;-76
2022/07/19 08:36:09;;;;;;;4.35;1.80;;;32.50;80.00;;;;;;4868918;29;20045;-75
2022/07/19 08:38:39;;;;;;;4.15;1.90;;;32.60;78.70;;;;;;4868076;29;20048;-77
2022/07/19 08:41:08;;;;;;;4.20;1.90;;;32.80;78.80;;;;;;4870043;29;20056;-80
2022/07/19 08:43:37;;;;;;;4.13;1.80;;;32.80;78.10;;;;;;4872017;29;20495;-77
2022/07/19 08:46:06;;;;;;;2.45;1.80;;;33.00;78.10;;;;;;4869823;29;20056;-78
2022/07/19 08:48:36;;;;;;;2.78;1.85;;;33.00;77.60;;;;;;4879933;29;20053;-77
2022/07/19 08:51:13;;;;;;;3.85;2.50;;;33.10;77.50;;;;;;4874014;29;20057;-77
2022/07/19 08:53:43;;;;;;;2.22;1.88;;;33.20;77.40;;;;;;4868518;29;20575;-77
2022/07/19 08:59:00;;;;;;;5.05;2.17;;;33.20;77.80;;;;;;4884266;29;20079;-77
2022/07/19 09:01:28;;;;;;;5.10;2.08;;;33.20;77.20;;;;;;4866793;29;20371;-80
2022/07/19 09:04:08;;;;;;;2.78;1.70;;;33.30;77.00;;;;;;4871989;29;20072;-79
2022/07/19 09:06:42;;;;;;;3.47;1.98;;;33.20;77.00;;;;;;4882574;29;20144;-77
2022/07/19 09:09:12;;;;;;;2.67;2.05;;;33.40;76.80;;;;;;4869327;29;20057;-78
2022/07/19 09:11:49;;;;;;;3.80;2.40;;;33.50;76.10;;;;;;4868599;29;21284;-78
2022/07/19 09:14:19;;;;;;;4.55;2.13;;;33.50;76.40;;;;;;4872957;29;20049;-78
2022/07/19 09:16:53;;;;;;;3.55;2.30;;;33.60;76.70;;;;;;4856219;29;20445;-78
2022/07/19 09:19:22;;;;;;;2.95;1.83;;;33.70;76.30;;;;;;4872132;29;20053;-77
2022/07/19 09:21:56;;;;;;;2.35;1.90;;;33.80;75.80;;;;;;4871683;29;20059;-77
2022/07/19 09:24:26;;;;;;;4.05;2.30;;;33.70;75.40;;;;;;4875955;29;20548;-77
2022/07/19 09:27:06;;;;;;;2.58;1.98;;;33.70;76.30;;;;;;4869003;29;20056;-77
2022/07/19 09:29:36;;;;;;;4.80;2.22;;;33.90;76.50;;;;;;4873638;29;20167;-76
2022/07/19 09:32:07;;;;;;;6.28;2.90;;;33.80;76.70;;;;;;4872352;29;20461;-75
2022/07/19 09:34:37;;;;;;;2.50;2.30;;;33.80;77.40;;;;;;4857319;29;20060;-76
2022/07/19 09:37:18;;;;;;;4.63;2.65;;;33.70;76.90;;;;;;4871349;29;20141;-78
2022/07/19 09:39:48;;;;;;;4.53;2.08;;;33.70;76.60;;;;;;4855041;29;20513;-76
2022/07/19 09:42:20;;;;;;;1.98;1.85;;;33.60;77.00;;;;;;4873086;29;20053;-77
2022/07/19 09:44:58;;;;;;;2.40;2.20;;;33.50;76.90;;;;;;4869822;29;20121;-76
2022/07/19 09:47:33;;;;;;;4.30;2.13;;;33.70;76.40;;;;;;4886598;29;20078;-76
2022/07/19 09:50:05;;;;;;;5.18;2.30;;;33.90;76.20;;;;;;4872062;29;20246;-76
2022/07/19 09:52:35;;;;;;;3.47;2.50;;;33.80;76.80;;;;;;4867038;29;20041;-77
2022/07/19 09:55:14;;;;;;;2.53;2.22;;;33.70;76.90;;;;;;4871105;29;20045;-77
2022/07/19 09:57:45;;;;;;;2.17;1.90;;;33.70;76.70;;;;;;4871470;29;20044;-77
2022/07/19 10:00:15;;;;;;;3.00;2.30;;;33.90;76.90;;;;;;4867967;29;20056;-76
2022/07/19 10:02:47;;;;;;;3.63;2.15;;;33.80;77.00;;;;;;4875338;29;20083;-76
2022/07/19 10:05:15;;;;;;;5.00;2.10;;;33.90;76.80;;;;;;4871724;29;20416;-76
2022/07/19 10:07:44;;;;;;;4.72;2.60;;;33.90;76.70;;;;;;4872565;29;20508;-77
2022/07/19 10:10:15;;;;;;;6.18;2.42;;;34.10;76.10;;;;;;4871765;29;20050;-77
2022/07/19 10:12:47;;;;;;;2.63;2.42;;;34.10;76.20;;;;;;4871384;29;20049;-76
2022/07/19 10:15:18;;;;;;;2.60;2.28;;;34.10;75.80;;;;;;4883508;29;20068;-76
2022/07/19 10:18:04;;;;;;;3.67;2.40;;;34.30;75.10;;;;;;4872805;29;20269;-75
2022/07/19 10:20:32;;;;;;;;;;;34.40;75.70;;;;;;4870100;29;20053;-76
2022/07/19 10:23:03;;;;;;;3.90;1.90;;;34.20;75.10;;;;;;4855344;29;19935;-76
2022/07/19 10:25:40;;;;;;;2.97;2.25;;;34.20;75.20;;;;;;4883649;29;20061;-77
2022/07/19 10:28:28;;;;;;;3.10;2.17;;;34.30;75.60;;;;;;4886198;29;20049;-78
2022/07/19 10:31:26;;;;;;;2.72;2.03;;;34.70;75.60;;;;;;4870498;29;20421;-81
2022/07/19 10:34:02;;;;;;;2.95;2.45;;;34.60;75.00;;;;;;4871050;29;20480;-77
2022/07/19 10:36:38;;;;;;;3.97;2.42;;;34.90;74.70;;;;;;4886119;29;20500;-77
2022/07/19 10:39:36;;;;;;;5.17;2.60;;;35.10;73.80;;;;;;4869375;29;20826;-77
2022/07/19 10:42:16;;;;;;;3.60;2.25;;;35.20;73.50;;;;;;4868265;29;20063;-79
2022/07/19 10:45:13;;;;;;;2.40;2.20;;;35.50;73.40;;;;;;4886790;29;20053;-79
2022/07/19 10:48:09;;;;;;;2.55;2.30;;;35.60;73.00;;;;;;4869519;29;20057;-76
2022/07/19 10:50:55;;;;;;;2.33;2.15;;;35.70;72.80;;;;;;4882590;29;20065;-76
2022/07/19 10:53:57;;;;;;;2.30;2.15;;;35.80;73.10;;;;;;4882168;29;20148;-77
2022/07/19 10:56:41;;;;;;;2.00;1.90;;;35.70;72.90;;;;;;4857363;29;20552;-75
2022/07/19 10:59:34;;;;;;;3.72;1.90;;;35.60;72.10;;;;;;4876437;29;20143;-75
2022/07/19 11:02:21;;;;;;;2.30;2.10;;;35.80;71.70;;;;;;4852920;29;20060;-76
2022/07/19 11:05:21;;;;;;;2.42;2.30;;;35.90;72.60;;;;;;4865239;29;20061;-75
2022/07/19 11:07:50;;;;;;;2.45;1.90;;;36.10;72.30;;;;;;4868555;29;20056;-77
2022/07/19 11:10:25;;;;;;;3.65;2.28;;;35.80;71.40;;;;;;4877744;29;20057;-77
2022/07/19 11:12:58;;;;;;;3.30;2.28;;;35.60;72.20;;;;;;4865472;29;20682;-76
2022/07/19 11:15:28;;;;;;;2.75;2.00;;;35.70;71.20;;;;;;4815856;29;20623;-77
2022/07/19 11:18:06;;;;;;;1.92;1.67;;;36.00;70.70;;;;;;4877053;29;20517;-77
2022/07/19 11:20:36;;;;;;;2.22;1.85;;;36.20;69.80;;;;;;4875177;29;20049;-77
2022/07/19 11:23:05;;;;;;;2.40;2.15;;;36.40;70.50;;;;;;4880099;29;20139;-77
2022/07/19 11:25:41;;;;;;;2.80;2.05;;;36.10;70.30;;;;;;4882021;29;20088;-77
2022/07/19 11:28:20;;;;;;;3.13;2.10;;;36.20;70.40;;;;;;4821749;29;20505;-77
2022/07/19 11:30:49;;;;;;;3.67;2.35;;;36.50;70.30;;;;;;4865062;29;20275;-77
2022/07/19 11:33:20;;;;;;;4.32;2.20;;;36.60;69.60;;;;;;4867182;29;20045;-77
2022/07/19 11:35:56;;;;;;;2.20;2.00;;;36.90;69.70;;;;;;4876547;29;20720;-77
2022/07/19 11:38:34;;;;;;;2.80;2.13;;;36.90;69.50;;;;;;4870430;29;20052;-77
2022/07/19 11:41:07;;;;;;;1.85;1.63;;;37.10;69.70;;;;;;4866249;29;20184;-77
2022/07/19 11:43:38;;;;;;;1.98;1.60;;;37.30;69.30;;;;;;4869007;29;20528;-78
2022/07/19 11:46:06;;;;;;;1.80;1.70;;;37.50;68.00;;;;;;4868178;29;20142;-78
2022/07/19 11:48:36;;;;;;;4.10;1.73;;;37.20;67.90;;;;;;4869656;29;20583;-78
2022/07/19 11:51:07;;;;;;;2.13;1.75;;;37.00;67.60;;;;;;4868601;29;20057;-78
2022/07/19 11:53:38;;;;;;;3.25;1.67;;;37.10;68.60;;;;;;4869674;29;20048;-78
2022/07/19 11:56:19;;;;;;;3.22;1.63;;;37.30;68.70;;;;;;4869337;29;20105;-79
2022/07/19 11:58:49;;;;;;;1.92;1.80;;;37.40;68.50;;;;;;4868497;29;20060;-79
2022/07/19 12:01:24;;;;;;;4.03;1.95;;;37.60;67.30;;;;;;4870487;29;20069;-78
2022/07/19 12:04:05;;;;;;;2.83;1.60;;;37.70;67.60;;;;;;4867516;29;20045;-78
2022/07/19 12:06:38;;;;;;;3.90;1.88;;;37.80;67.60;;;;;;4874001;29;20036;-78
2022/07/19 12:09:08;;;;;;;2.55;1.70;;;37.80;67.40;;;;;;4870105;29;20456;-78
2022/07/19 12:11:42;;;;;;;2.03;1.55;;;37.80;67.30;;;;;;4869980;29;20048;-78
2022/07/19 12:14:20;;;;;;;2.38;1.88;;;37.90;67.50;;;;;;4870090;29;20041;-78
2022/07/19 12:16:49;;;;;;;1.85;1.63;;;37.80;67.10;;;;;;4868151;29;20077;-76
2022/07/19 12:19:20;;;;;;;3.03;1.70;;;38.00;67.00;;;;;;4868412;29;20511;-77
2022/07/19 12:25:12;;;;;;;3.72;1.60;;;38.20;66.70;;;;;;4869432;29;20107;-77
2022/07/19 12:27:41;;;;;;;3.13;1.70;;;38.40;67.20;;;;;;4870186;29;20045;-77
2022/07/19 12:30:19;;;;;;;3.53;2.00;;;38.60;66.50;;;;;;4885435;29;20068;-77
2022/07/19 12:32:47;;;;;;;2.58;1.55;;;38.80;66.60;;;;;;4864410;29;20392;-77
2022/07/19 12:35:19;;;;;;;2.75;1.83;;;38.70;66.50;;;;;;4865883;29;20486;-77
2022/07/19 12:37:50;;;;;;;2.80;1.50;;;38.70;66.70;;;;;;4885697;29;20119;-77
2022/07/19 12:40:26;;;;;;;1.90;1.70;;;38.40;66.20;;;;;;4882950;29;20061;-77
2022/07/19 12:43:00;;;;;;;4.70;1.90;;;38.60;66.30;;;;;;4870514;29;20128;-77
2022/07/19 12:45:31;;;;;;;2.35;1.33;;;38.90;66.90;;;;;;4873470;29;20056;-76
2022/07/19 12:48:00;;;;;;;2.55;1.90;;;38.90;66.00;;;;;;4889252;29;20123;-77
2022/07/19 12:50:32;;;;;;;2.17;1.60;;;38.60;65.20;;;;;;4890063;29;20040;-77
2022/07/19 12:53:03;;;;;;;2.60;1.80;;;38.40;65.80;;;;;;4889387;29;20589;-78
2022/07/19 12:55:33;;;;;;;4.47;1.60;;;38.40;66.50;;;;;;4874596;29;20056;-77
2022/07/19 12:58:03;;;;;;;2.95;1.80;;;38.20;65.50;;;;;;4872818;29;20088;-76
2022/07/19 13:00:33;;;;;;;3.05;1.48;;;38.10;66.10;;;;;;4874641;29;20062;-76
2022/07/19 13:03:02;;;;;;;4.05;1.63;;;38.10;66.40;;;;;;4873920;29;20251;-76
2022/07/19 13:05:34;;;;;;;4.32;2.10;;;38.20;66.40;;;;;;4871654;29;20108;-76
2022/07/19 13:08:03;;;;;;;1.98;1.75;;;38.30;66.80;;;;;;4851845;29;20053;-77
2022/07/19 13:10:32;;;;;;;1.80;1.70;;;38.20;65.10;;;;;;4873841;29;20121;-77
2022/07/19 13:13:01;;;;;;;2.75;1.60;;;38.40;65.00;;;;;;4889607;29;20053;-76